Historyczne dane pomiarowe

Dodano dane terminowe – wersja testowa.

Dane z okresu 1951-2019

Wersja bazy: 1.34 [2019-03-16, lista zmian], aktualizacja planowana na 2019-04-15

Dane meteo z obszaru Polski uzyskane na podstawie danych udostępnionych przez Instytut Meteorologii i Gospodarki Wodnej – Państwowy Instytut Badawczy.

 

Wybierz Datę:    

       

TemperaturaWilgotnośćWiatrCiśnienieOpadyŚniegCzas trwania zjawisk
 Stacja t tx tn tng RH VA  wxwx mslp ppp RRR   cm mm wxwxwxwxwxwxwx
1994-08-14 14.9 18.0 10.8- 73.8- 5.3 1.3---- 0.0------------
1994-08-13 16.4 21.0 12.3- 89.8- 7.7 0.0---- 6.5------------
1994-08-12 15.5 22.0 12.3- 98.3- 7.3 1.7---- 12.6------------
1994-08-11 18.5 27.0 12.8- 93.8- 5.3 1.0---- 8.5------------
1994-08-10 18.7 27.0 9.8- 81.0- 3.7 1.0---- 0.2------------
1994-08-09 17.7 21.0 14.8- 93.8- 8.0 2.0---- 5.3------------
1994-08-08 20.2 28.5 11.3- 90.5- 4.7 0.7---- 0.2------------
1994-08-07 20.0 30.5 15.2- 85.3- 5.0 0.3---- 27.5------------
1994-08-06 21.0 31.0 11.3- 76.3- 3.7 0.7---- 0.0------------
1994-08-05 20.6 30.0 12.3- 79.5- 3.0 0.0---- 0.0------------
1994-08-04 20.3 29.5 13.3- 87.8- 4.0 0.7---- 0.0------------
1994-08-03 20.6 29.0 11.8- 88.5- 4.3 1.3---- 0.5------------
1994-08-02 21.3 32.4 12.8- 80.5- 2.3 0.7---- 0.0------------
1994-08-01 23.3 32.4 14.8- 76.3- 3.3 0.7---- 0.0------------
1994-07-31 23.1 33.3 11.8- 57.3- 1.0 1.0---- 0.0------------
1994-07-30 22.4 32.9 10.8- 57.8- 1.0 1.0---- 0.0------------
1994-07-29 21.1 31.9 10.3- 56.8- 2.0 0.0---- 0.0------------
1994-07-28 21.4 31.0 11.3- 59.0- 3.3 0.0---- 0.0------------
1994-07-27 20.6 30.5 11.8- 65.5- 1.3 0.0---- 0.0------------
1994-07-26 21.5 31.0 12.3- 69.5- 2.0 0.7---- 0.0------------
1994-07-25 19.9 30.0 10.8- 77.0- 2.0 0.0---- 0.0------------
1994-07-24 20.8 28.5 10.3- 60.8- 2.0 0.7---- 0.0------------
1994-07-23 17.6 27.0 7.4- 68.8- 2.0 1.0---- 0.0------------
1994-07-22 16.3 26.0 6.9- 74.8- 2.0 0.0---- 0.0------------
1994-07-21 16.3 24.5 6.9- 62.8- 2.0 0.7---- 0.0------------
1994-07-20 16.8 21.5 9.8- 70.5- 3.0 0.7---- 0.0------------
1994-07-19 17.8 23.5 12.8- 84.0- 4.0 0.7---- 0.0------------
1994-07-18 19.8 26.0 10.3- 88.8- 5.3 0.3---- 0.0------------
1994-07-17 19.4 28.0 12.8- 89.8- 5.7 1.3---- 3.8------------
1994-07-16 19.0 28.0 12.3- 88.3- 5.7 0.3---- 16.0------------
1994-07-15 17.4 26.0 10.6- 88.0- 3.7 1.0---- 1.3------------
1994-07-14 17.6 27.0 10.3- 86.0- 5.0 1.0---- 4.0------------
1994-07-13 18.4 26.0 9.6- 79.5- 1.7 1.7---- 0.0------------
1994-07-12 18.9 24.0 11.8- 77.3- 5.3 1.0---- 0.0------------
1994-07-11 15.5 22.5 8.9- 91.3- 5.3 1.3---- 0.2------------
1994-07-10 13.2 17.5 10.3- 96.3- 7.0 1.3---- 9.2------------
1994-07-09 13.7 18.0 9.3- 86.8- 7.7 1.3---- 28.3------------
1994-07-08 16.2 21.0 12.8- 97.0- 6.3 1.7---- 1.6------------
1994-07-07 16.3 26.0 8.4- 84.5- 6.3 0.7---- 5.6------------
1994-07-06 19.5 24.5 11.8- 63.3- 2.0 1.0---- 0.0------------
1994-07-05 18.6 25.6 10.8- 81.8- 5.7 0.0---- 0.0------------
1994-07-04 19.0 29.5 7.9- 63.5- 1.7 1.3---- 0.0------------
1994-07-03 18.3 26.5 6.5- 63.0- 2.0 1.0---- 0.0------------
1994-07-02 17.2 24.0 6.8- 63.5- 2.7 1.0---- 0.0------------
1994-07-01 19.2 22.5 15.8- 67.5- 3.3 1.0---- 0.0------------
1994-06-30 21.9 27.5 16.3- 93.8- 5.0 1.0---- 0.0------------
1994-06-29 22.7 30.0 13.8- 63.0- 2.0 0.3---- 0.0------------
1994-06-28 22.4 30.0 15.3- 86.8- 1.7 0.3---- 0.0------------
1994-06-27 23.5 30.5 14.3- 65.8- 2.0 0.0---- 0.0------------
1994-06-26 19.6 28.0 6.5- 62.8- 2.0 0.7---- 0.0------------
1994-06-25 14.6 23.5 2.6- 57.0- 2.3 1.0---- 0.0------------
1994-06-24 13.4 20.0 3.6- 56.3- 3.0 1.3---- 0.0------------
1994-06-23 16.8 22.3 9.8- 61.8- 4.7 1.7---- 0.0------------
1994-06-22 17.1 26.0 6.5- 76.5- 3.0 1.3---- 0.0------------
1994-06-21 13.5 18.5 6.5- 64.8- 3.7 0.0---- 0.0------------
1994-06-20 16.1 21.1 7.9- 80.8- 4.0 2.3---- 0.0------------
1994-06-19 17.1 25.0 9.8- 61.8- 4.0 1.7---- 0.0------------
1994-06-18 13.0 18.5 7.9- 81.5- 5.0 1.7---- 9.1------------
1994-06-17 11.3 13.6 7.9- 85.3- 6.3 2.0---- 0.1------------
1994-06-16 10.9 16.0 4.5- 90.0- 5.7 1.3---- 1.5------------
284.5 ms

 

Źródłem pochodzenia danych jest Instytut Meteorologii i Gospodarki Wodnej – Państwowy Instytut Badawczy. Dane Instytutu Meteorologii i Gospodarki Wodnej – Państwowego Instytutu Badawczego zostały przetworzone.

Dane źródłowe można odnaleźć na stronie https://dane.imgw.pl